Time;durP1;ratioP1;P1;durP2;ratioP2;P2;SDS_P1;SDS_P2;PMS_P1;PMS_P2;Temp;Humidity;BMP_temperature;BMP_pressure;BME280_temperature;BME280_humidity;BME280_pressure;Samples;Min_cycle;Max_cycle;Signal;HPM_P1;HPM_P2
2022/04/22 00:01:49;;;;;;;10.27;6.55;;;11.00;99.60;;;;;;2133100;67;20201;-75
2022/04/22 00:04:31;;;;;;;11.30;5.80;;;10.90;99.90;;;;;;2132097;66;20267;-74
2022/04/22 00:07:12;;;;;;;8.52;6.80;;;10.90;99.90;;;;;;2123328;67;25981;-75
2022/04/22 00:09:58;;;;;;;8.95;6.50;;;10.90;99.90;;;;;;2118516;67;20184;-74
2022/04/22 00:12:46;;;;;;;10.80;6.72;;;10.80;99.90;;;;;;2117945;67;20308;-74
2022/04/22 00:15:29;;;;;;;12.38;8.15;;;10.70;99.90;;;;;;2133386;66;20682;-74
2022/04/22 00:18:11;;;;;;;10.93;6.90;;;10.70;99.90;;;;;;2146533;66;20702;-75
2022/04/22 00:20:53;;;;;;;8.82;6.72;;;10.70;99.90;;;;;;2153791;66;20254;-75
2022/04/22 00:23:35;;;;;;;9.27;7.07;;;10.60;99.90;;;;;;2137461;66;20757;-74
2022/04/22 00:26:18;;;;;;;12.75;6.78;;;10.50;99.90;;;;;;2146663;66;20192;-74
2022/04/22 00:29:03;;;;;;;10.75;6.95;;;10.50;99.90;;;;;;2131671;66;20748;-74
2022/04/22 00:31:45;;;;;;;8.93;7.00;;;10.40;99.90;;;;;;2139610;67;20255;-74
2022/04/22 00:34:27;;;;;;;12.60;6.82;;;10.40;99.90;;;;;;2141641;66;20236;-75
2022/04/22 00:37:09;;;;;;;10.98;6.90;;;10.30;99.90;;;;;;2132238;67;20304;-74
2022/04/22 00:39:57;;;;;;;8.20;6.68;;;10.30;99.90;;;;;;2124503;67;20284;-76
2022/04/22 00:42:42;;;;;;;8.68;6.68;;;10.20;99.90;;;;;;2124551;67;20387;-73
2022/04/22 00:45:25;;;;;;;10.20;6.22;;;10.20;99.90;;;;;;2119355;67;20341;-74
2022/04/22 00:48:10;;;;;;;9.90;6.72;;;10.10;99.90;;;;;;2116845;67;20613;-75
2022/04/22 00:50:52;;;;;;;10.63;6.75;;;10.10;99.90;;;;;;2122794;67;20189;-74
2022/04/22 00:53:35;;;;;;;11.40;6.93;;;10.10;99.90;;;;;;2117183;67;20637;-74
2022/04/22 00:56:17;;;;;;;8.82;6.00;;;10.00;99.90;;;;;;2126496;66;20804;-74
2022/04/22 00:59:00;;;;;;;13.80;6.88;;;9.90;99.90;;;;;;2126906;67;20192;-73
2022/04/22 01:01:45;;;;;;;10.48;6.60;;;9.90;99.90;;;;;;2119925;67;20400;-73
2022/04/22 01:10:27;;;;;;;8.95;6.78;;;9.80;99.90;;;;;;2134017;67;20129;-74
2022/04/22 01:13:10;;;;;;;8.50;6.07;;;9.80;99.90;;;;;;2122304;67;20389;-72
2022/04/22 01:15:52;;;;;;;9.23;6.30;;;9.70;99.90;;;;;;2121657;67;20834;-73
2022/04/22 01:18:37;;;;;;;11.68;6.82;;;9.70;99.90;;;;;;2129991;67;20180;-72
2022/04/22 01:21:19;;;;;;;7.72;6.00;;;9.70;99.90;;;;;;2134197;67;20402;-73
2022/04/22 01:24:01;;;;;;;11.40;6.78;;;9.70;99.90;;;;;;2141413;67;20230;-73
2022/04/22 01:26:45;;;;;;;10.50;6.78;;;9.60;99.90;;;;;;2120283;67;20261;-74
2022/04/22 01:29:27;;;;;;;10.30;6.45;;;9.70;99.90;;;;;;2130220;67;20234;-73
2022/04/22 01:32:09;;;;;;;15.55;7.30;;;9.50;99.90;;;;;;2142859;66;20307;-75
2022/04/22 01:34:51;;;;;;;7.97;6.57;;;9.50;99.90;;;;;;2160665;66;20178;-75
2022/04/22 01:37:33;;;;;;;11.13;6.78;;;9.50;99.90;;;;;;2157220;65;20242;-73
2022/04/22 01:40:15;;;;;;;11.50;6.35;;;9.40;99.90;;;;;;2162387;66;20781;-74
2022/04/22 01:42:57;;;;;;;11.85;6.38;;;9.40;99.90;;;;;;2140757;66;20202;-75
2022/04/22 01:45:42;;;;;;;11.52;6.57;;;9.30;99.90;;;;;;2140859;67;20234;-73
2022/04/22 01:48:24;;;;;;;9.57;6.50;;;9.20;99.90;;;;;;2142287;67;20756;-74
2022/04/22 01:51:06;;;;;;;11.00;7.10;;;9.20;99.90;;;;;;2141651;67;20327;-75
2022/04/22 01:53:48;;;;;;;9.73;7.22;;;9.20;99.90;;;;;;2147853;66;20232;-75
2022/04/22 01:56:30;;;;;;;10.20;6.20;;;9.00;99.90;;;;;;2126346;67;20195;-74
2022/04/22 01:59:12;;;;;;;14.75;7.10;;;9.00;99.90;;;;;;2135872;67;20670;-74
2022/04/22 02:01:54;;;;;;;8.90;6.05;;;8.90;99.90;;;;;;2154752;66;20199;-74
2022/04/22 02:04:37;;;;;;;10.15;6.72;;;8.80;99.90;;;;;;2132931;67;20332;-75
2022/04/22 02:07:22;;;;;;;14.00;6.63;;;8.80;99.90;;;;;;2135270;67;20356;-75
2022/04/22 02:10:06;;;;;;;9.35;6.35;;;8.80;99.90;;;;;;2147896;66;20311;-74
2022/04/22 02:12:49;;;;;;;12.50;5.85;;;8.70;99.90;;;;;;2154045;66;20326;-73
2022/04/22 02:15:33;;;;;;;9.68;6.43;;;8.90;99.90;;;;;;2147261;66;20742;-75
2022/04/22 02:18:21;;;;;;;11.13;5.95;;;8.70;99.90;;;;;;2144263;66;20738;-75
2022/04/22 02:21:06;;;;;;;9.05;5.82;;;8.60;99.90;;;;;;2132782;67;20367;-74
2022/04/22 02:23:49;;;;;;;7.70;6.18;;;8.60;99.90;;;;;;2142081;66;20312;-74
2022/04/22 02:28:31;;;;;;;8.32;5.82;;;8.50;99.90;;;;;;2142200;67;20200;-74
2022/04/22 02:29:33;;;;;;;10.85;5.97;;;8.50;99.90;;;;;;2139406;67;20727;-75
2022/04/22 02:32:17;;;;;;;7.88;6.05;;;8.50;99.90;;;;;;2132083;67;20215;-73
2022/04/22 02:34:58;;;;;;;8.85;6.15;;;8.50;99.90;;;;;;2147012;66;20268;-73
2022/04/22 02:37:40;;;;;;;11.00;6.13;;;8.40;99.90;;;;;;2147271;66;20335;-74
2022/04/22 02:46:23;;;;;;;8.23;6.45;;;8.30;99.90;;;;;;2144239;66;20327;-74
2022/04/22 02:49:05;;;;;;;10.57;6.05;;;8.30;99.90;;;;;;2125004;67;20754;-74
2022/04/22 02:51:47;;;;;;;8.23;6.20;;;8.20;99.90;;;;;;2113197;67;20166;-74
2022/04/22 02:54:34;;;;;;;9.75;5.95;;;8.20;99.90;;;;;;2118418;67;20628;-75
2022/04/22 02:57:16;;;;;;;7.55;5.68;;;8.10;99.90;;;;;;2125236;67;20727;-73
2022/04/22 02:59:58;;;;;;;12.70;6.05;;;8.20;99.90;;;;;;2116858;67;20595;-73
2022/04/22 03:02:42;;;;;;;10.88;6.47;;;8.00;99.90;;;;;;2116819;67;20177;-74
2022/04/22 03:05:28;;;;;;;7.13;5.18;;;8.00;99.90;;;;;;2120355;67;20735;-74
2022/04/22 03:08:13;;;;;;;8.43;5.95;;;7.90;99.90;;;;;;2147862;66;20416;-74
2022/04/22 03:10:55;;;;;;;9.60;5.65;;;8.00;99.90;;;;;;2124956;67;20234;-74
2022/04/22 03:13:39;;;;;;;6.93;5.47;;;7.90;99.90;;;;;;2127564;67;20203;-73
2022/04/22 03:16:24;;;;;;;11.52;5.97;;;7.90;99.90;;;;;;2132957;67;20275;-73
2022/04/22 03:19:06;;;;;;;6.70;5.75;;;7.90;99.90;;;;;;2125854;67;20284;-74
2022/04/22 03:21:49;;;;;;;6.57;5.35;;;7.90;99.90;;;;;;2124311;67;20704;-73
2022/04/22 03:24:31;;;;;;;8.45;5.72;;;7.90;99.90;;;;;;2118775;67;20950;-75
2022/04/22 03:27:13;;;;;;;11.40;6.63;;;7.90;99.90;;;;;;2118323;67;20181;-75
2022/04/22 03:29:55;;;;;;;10.77;5.88;;;7.80;99.90;;;;;;2125501;67;20729;-75
2022/04/22 03:32:37;;;;;;;10.68;6.22;;;7.80;99.90;;;;;;2132747;67;20184;-76
2022/04/22 03:35:20;;;;;;;11.32;5.63;;;7.80;99.90;;;;;;2142525;67;20162;-74
2022/04/22 03:38:04;;;;;;;;;;;7.70;99.90;;;;;;2133878;67;20203;-73
2022/04/22 03:40:50;;;;;;;8.60;6.05;;;7.70;99.90;;;;;;2146656;66;20326;-73
2022/04/22 03:43:34;;;;;;;10.30;6.45;;;7.70;99.90;;;;;;2144927;66;20406;-73
2022/04/22 03:46:21;;;;;;;7.53;5.55;;;7.70;99.90;;;;;;2134313;67;20163;-75
2022/04/22 03:49:04;;;;;;;9.45;6.18;;;7.70;99.90;;;;;;2139949;66;20195;-74
2022/04/22 03:51:49;;;;;;;9.35;6.43;;;7.70;99.90;;;;;;2124763;67;20299;-74
2022/04/22 03:54:31;;;;;;;11.05;5.80;;;7.60;99.90;;;;;;2125276;67;20248;-75
2022/04/22 04:00:14;;;;;;;9.23;6.32;;;7.80;99.90;;;;;;2133961;67;20259;-74
2022/04/22 04:02:57;;;;;;;8.27;6.25;;;7.50;99.90;;;;;;2132426;67;20677;-75
2022/04/22 04:05:50;;;;;;;;;;;7.40;99.90;;;;;;2126309;67;20260;-74
2022/04/22 04:08:32;;;;;;;8.63;5.28;;;7.40;99.90;;;;;;2125211;67;20288;-75
2022/04/22 04:17:15;;;;;;;8.35;5.43;;;7.30;99.90;;;;;;2137767;67;20206;-73
2022/04/22 04:23:17;;;;;;;9.52;6.10;;;7.20;99.90;;;;;;2143062;66;20183;-75
2022/04/22 04:26:02;;;;;;;8.60;5.32;;;7.20;99.90;;;;;;2143449;66;20638;-74
2022/04/22 04:28:47;;;;;;;7.53;5.05;;;7.20;99.90;;;;;;2141852;66;20219;-75
2022/04/22 04:31:29;;;;;;;8.63;5.70;;;7.10;99.90;;;;;;2139305;67;20191;-74
2022/04/22 04:34:10;;;;;;;6.78;5.05;;;7.10;99.90;;;;;;2162121;66;20198;-72
2022/04/22 04:36:52;;;;;;;7.32;4.90;;;7.10;99.90;;;;;;2176783;65;20332;-75
2022/04/22 04:39:36;;;;;;;7.15;4.75;;;7.10;99.90;;;;;;2164903;66;20177;-74
2022/04/22 04:42:25;;;;;;;8.48;5.47;;;7.10;99.90;;;;;;2147398;66;20286;-74
2022/04/22 04:45:10;;;;;;;11.05;5.28;;;7.10;99.90;;;;;;2165087;66;20269;-74
2022/04/22 04:47:54;;;;;;;7.22;5.32;;;7.00;99.90;;;;;;2159999;66;20260;-74
2022/04/22 04:50:40;;;;;;;7.05;4.63;;;7.00;99.90;;;;;;2150364;66;20444;-75
2022/04/22 04:53:24;;;;;;;7.80;5.07;;;7.10;99.90;;;;;;2145966;66;20182;-75
2022/04/22 04:56:06;;;;;;;7.95;5.10;;;7.20;99.90;;;;;;2149753;66;20379;-75
2022/04/22 04:58:48;;;;;;;5.07;4.53;;;7.00;99.90;;;;;;2147329;66;20409;-74
2022/04/22 05:01:29;;;;;;;10.20;4.63;;;7.00;99.90;;;;;;2140758;66;20224;-73
2022/04/22 05:04:11;;;;;;;8.18;4.82;;;7.00;99.90;;;;;;2139335;67;20320;-75
2022/04/22 05:06:53;;;;;;;6.38;4.63;;;7.00;99.90;;;;;;2147548;66;20241;-74
2022/04/22 05:09:35;;;;;;;8.25;4.50;;;7.00;99.90;;;;;;2139822;67;20293;-75
2022/04/22 05:12:17;;;;;;;7.47;4.80;;;7.00;99.90;;;;;;2126081;67;20172;-74
2022/04/22 05:14:59;;;;;;;7.55;3.90;;;7.20;99.90;;;;;;2126050;67;20223;-74
2022/04/22 05:17:42;;;;;;;8.52;4.03;;;7.10;99.90;;;;;;2126007;67;20392;-74
2022/04/22 05:20:26;;;;;;;6.90;3.90;;;7.20;99.90;;;;;;2118937;67;20223;-74
2022/04/22 05:23:10;;;;;;;8.63;4.22;;;7.10;99.90;;;;;;2133137;67;20341;-75
2022/04/22 05:25:55;;;;;;;7.88;4.00;;;7.20;99.90;;;;;;2140395;67;20644;-75
2022/04/22 05:28:40;;;;;;;5.13;3.50;;;7.20;99.90;;;;;;2140715;67;20186;-75
2022/04/22 05:34:26;;;;;;;6.57;4.00;;;7.30;99.90;;;;;;2133831;67;20194;-74
2022/04/22 05:37:08;;;;;;;;;;;7.30;99.90;;;;;;2134106;67;20774;-75
2022/04/22 05:39:50;;;;;;;4.95;3.78;;;7.40;99.90;;;;;;2129586;67;20381;-74
2022/04/22 05:42:33;;;;;;;3.65;3.28;;;7.40;99.90;;;;;;2149398;66;20887;-75
2022/04/22 05:45:16;;;;;;;3.85;3.42;;;7.40;99.90;;;;;;2159133;66;20190;-74
2022/04/22 05:48:02;;;;;;;4.78;3.58;;;7.70;99.90;;;;;;2139771;66;20210;-74
2022/04/22 05:50:43;;;;;;;7.18;3.25;;;7.50;99.90;;;;;;2140661;67;20608;-75
2022/04/22 05:53:26;;;;;;;8.80;4.38;;;7.50;99.90;;;;;;2139571;67;20736;-75
2022/04/22 05:56:09;;;;;;;4.85;3.33;;;7.60;99.90;;;;;;2126552;67;20363;-75
2022/04/22 05:58:52;;;;;;;6.53;3.22;;;7.60;99.90;;;;;;2118793;67;20200;-75
2022/04/22 06:01:34;;;;;;;4.50;3.15;;;7.70;99.90;;;;;;2118873;67;20714;-74
2022/04/22 06:04:16;;;;;;;6.80;3.60;;;7.70;99.90;;;;;;2118769;67;20188;-75
2022/04/22 06:06:58;;;;;;;5.25;3.38;;;7.70;99.90;;;;;;2118951;67;20177;-73
2022/04/22 06:12:40;;;;;;;5.88;3.22;;;7.90;99.90;;;;;;2137472;67;20179;-74
2022/04/22 06:15:21;;;;;;;5.38;3.05;;;8.00;99.90;;;;;;2147869;67;20677;-73
2022/04/22 06:18:03;;;;;;;4.20;3.03;;;8.00;99.90;;;;;;2127039;67;20195;-73
2022/04/22 06:20:45;;;;;;;4.20;2.72;;;8.10;99.90;;;;;;2126401;67;20180;-72
2022/04/22 06:23:27;;;;;;;7.68;3.42;;;8.10;99.90;;;;;;2125098;67;20713;-74
2022/04/22 06:26:09;;;;;;;3.75;2.85;;;8.50;99.90;;;;;;2113872;67;20205;-75
2022/04/22 06:28:51;;;;;;;3.95;2.88;;;8.30;99.90;;;;;;2113259;67;20311;-73
2022/04/22 06:31:35;;;;;;;7.45;3.15;;;8.30;99.90;;;;;;2118396;67;20757;-75
2022/04/22 06:34:18;;;;;;;4.45;2.67;;;8.40;99.90;;;;;;2119209;67;20314;-74
2022/04/22 06:37:02;;;;;;;4.80;2.90;;;8.40;99.90;;;;;;2119217;67;20276;-75
2022/04/22 06:45:48;;;;;;;6.65;3.13;;;8.60;99.90;;;;;;2116716;67;20188;-76
2022/04/22 06:48:33;;;;;;;3.35;2.70;;;8.70;99.90;;;;;;2138786;66;20182;-75
2022/04/22 06:51:17;;;;;;;4.03;2.58;;;8.80;99.90;;;;;;2136940;67;20379;-80
2022/04/22 06:54:03;;;;;;;3.88;2.75;;;8.90;99.90;;;;;;2150027;66;20281;-75
2022/04/22 06:56:48;;;;;;;3.40;3.10;;;8.90;99.90;;;;;;2146302;66;20308;-75
2022/04/22 06:59:32;;;;;;;8.05;3.22;;;9.00;99.90;;;;;;2140462;66;20167;-77
2022/04/22 07:02:15;;;;;;;6.35;3.15;;;9.00;99.90;;;;;;2140908;66;20344;-76
2022/04/22 07:05:01;;;;;;;4.72;2.67;;;9.10;99.90;;;;;;2124774;67;20339;-77
2022/04/22 07:07:49;;;;;;;4.85;2.80;;;9.20;99.90;;;;;;2133842;67;20180;-77
2022/04/22 07:10:38;;;;;;;5.88;2.50;;;9.20;99.90;;;;;;2139773;66;20223;-79
2022/04/22 07:13:20;;;;;;;3.17;2.35;;;9.30;99.90;;;;;;2141179;66;20351;-77
2022/04/22 07:16:05;;;;;;;5.97;2.60;;;9.30;99.90;;;;;;2132493;67;20331;-78
2022/04/22 07:18:53;;;;;;;5.85;2.90;;;9.40;99.90;;;;;;2131839;67;20275;-75
2022/04/22 07:21:38;;;;;;;4.53;2.88;;;9.50;99.90;;;;;;2126089;67;20418;-76
2022/04/22 07:24:21;;;;;;;6.47;3.60;;;9.50;99.90;;;;;;2138662;67;20347;-77
2022/04/22 07:27:04;;;;;;;5.22;2.88;;;9.60;99.90;;;;;;2129113;67;20411;-79
2022/04/22 07:29:47;;;;;;;4.63;2.38;;;9.70;99.90;;;;;;2136386;66;20323;-82
2022/04/22 07:32:31;;;;;;;3.40;2.33;;;9.80;99.90;;;;;;2149850;66;20233;-77
2022/04/22 07:35:15;;;;;;;3.38;2.40;;;9.90;99.90;;;;;;2152840;66;20181;-76
2022/04/22 07:37:59;;;;;;;3.65;2.72;;;10.00;99.90;;;;;;2136766;66;20183;-75
2022/04/22 07:40:43;;;;;;;9.55;3.03;;;10.00;99.90;;;;;;2139473;67;20452;-75
2022/04/22 07:49:29;;;;;;;5.00;2.90;;;10.40;99.90;;;;;;2138386;67;20268;-77
2022/04/22 07:52:11;;;;;;;7.28;3.67;;;10.40;99.90;;;;;;2123724;67;20292;-76
2022/04/22 07:54:56;;;;;;;6.97;3.38;;;10.50;99.90;;;;;;2128171;67;20184;-77
2022/04/22 07:57:39;;;;;;;3.75;2.78;;;10.60;99.90;;;;;;2130062;67;20279;-75
2022/04/22 08:00:23;;;;;;;6.60;3.30;;;10.60;99.90;;;;;;2131958;67;20355;-76
2022/04/22 08:03:08;;;;;;;5.03;3.20;;;10.70;99.90;;;;;;2136065;67;20231;-75
2022/04/22 08:05:50;;;;;;;3.97;2.70;;;10.80;99.90;;;;;;2123294;67;20276;-78
2022/04/22 08:08:33;;;;;;;5.28;3.03;;;10.90;99.90;;;;;;2125326;67;20878;-79
2022/04/22 08:11:20;;;;;;;4.03;2.78;;;10.90;99.90;;;;;;2131444;67;20187;-79
2022/04/22 08:14:01;;;;;;;4.22;2.58;;;11.00;99.90;;;;;;2119013;67;20455;-78
2022/04/22 08:16:43;;;;;;;5.97;3.22;;;11.10;99.60;;;;;;2124293;67;20176;-79
2022/04/22 08:19:26;;;;;;;3.58;2.53;;;11.10;99.50;;;;;;2118740;67;20728;-79
2022/04/22 08:22:11;;;;;;;6.80;2.38;;;11.20;99.50;;;;;;2125856;67;20775;-80
2022/04/22 08:24:55;;;;;;;5.40;2.75;;;11.20;99.30;;;;;;2125375;67;20273;-79
2022/04/22 08:27:37;;;;;;;4.43;2.75;;;11.30;99.20;;;;;;2133346;67;20270;-78
2022/04/22 08:30:19;;;;;;;4.75;2.95;;;11.40;99.10;;;;;;2139216;67;20277;-78
2022/04/22 08:33:01;;;;;;;8.85;2.80;;;11.40;99.20;;;;;;2125763;67;20237;-79
2022/04/22 08:35:38;;;;;;;4.15;2.72;;;11.40;99.10;;;;;;2132736;67;20196;-76
2022/04/22 08:38:17;;;;;;;4.85;2.30;;;11.50;99.10;;;;;;2128721;67;20274;-77
2022/04/22 08:40:54;;;;;;;5.53;2.92;;;11.60;99.20;;;;;;2132767;67;20167;-74
2022/04/22 08:43:33;;;;;;;4.20;2.25;;;11.70;98.70;;;;;;2132743;67;20787;-78
2022/04/22 08:52:05;;;;;;;3.20;2.90;;;11.90;98.20;;;;;;2161736;66;20276;-77
2022/04/22 08:54:45;;;;;;;4.05;2.33;;;11.90;97.90;;;;;;2161924;66;20222;-79
2022/04/22 08:57:22;;;;;;;3.08;2.55;;;12.00;97.70;;;;;;2172683;65;20190;-77
2022/04/22 09:00:00;;;;;;;3.83;2.50;;;12.00;97.50;;;;;;2176897;65;20594;-76
2022/04/22 09:02:51;;;;;;;4.47;2.60;;;12.10;97.50;;;;;;2183522;65;20163;-74
2022/04/22 09:05:42;;;;;;;5.03;2.63;;;12.20;97.30;;;;;;2187159;65;20222;-75
2022/04/22 09:08:36;;;;;;;5.43;2.70;;;12.20;97.00;;;;;;2183960;65;20199;-76
2022/04/22 09:11:07;;;;;;;4.43;3.15;;;12.30;96.80;;;;;;2177132;65;20231;-78
2022/04/22 09:14:01;;;;;;;4.40;2.63;;;12.40;96.70;;;;;;2168985;66;20295;-76
2022/04/22 09:16:52;;;;;;;4.93;2.50;;;12.40;96.70;;;;;;2160275;66;20741;-76
2022/04/22 09:19:35;;;;;;;4.70;2.90;;;12.50;96.50;;;;;;2154453;66;20219;-77
2022/04/22 09:22:08;;;;;;;5.78;2.80;;;12.70;96.40;;;;;;2162879;66;20206;-75
2022/04/22 09:24:47;;;;;;;3.72;2.70;;;12.70;96.20;;;;;;2182325;65;20306;-77
2022/04/22 09:27:43;;;;;;;4.82;2.55;;;12.80;95.70;;;;;;2190042;65;20189;-79
2022/04/22 09:30:26;;;;;;;5.38;2.85;;;12.90;95.70;;;;;;2191551;65;20227;-77
2022/04/22 09:33:12;;;;;;;3.38;2.38;;;13.00;95.30;;;;;;2203999;65;20228;-76
2022/04/22 09:45:20;;;;;;;2.78;2.15;;;13.40;93.80;;;;;;2179780;65;20190;-75
2022/04/22 09:48:13;;;;;;;;;;;13.50;93.30;;;;;;2170226;66;20346;-75
2022/04/22 09:50:57;;;;;;;6.93;2.45;;;13.70;93.20;;;;;;2167377;66;21029;-76
2022/04/22 09:53:39;;;;;;;3.92;2.47;;;13.80;93.20;;;;;;2154887;66;20217;-73
2022/04/22 09:56:24;;;;;;;7.30;2.40;;;13.80;92.70;;;;;;2153704;66;20323;-75
2022/04/22 09:59:29;;;;;;;7.20;3.30;;;14.00;92.30;;;;;;2156032;66;20758;-76
2022/04/22 10:02:21;;;;;;;4.10;2.75;;;14.10;91.20;;;;;;2133693;67;20234;-75
2022/04/22 10:05:07;;;;;;;8.33;3.13;;;14.20;91.30;;;;;;2128666;67;20356;-75
2022/04/22 10:07:56;;;;;;;6.47;2.35;;;14.30;91.30;;;;;;2121729;67;20374;-75
2022/04/22 10:10:43;;;;;;;8.68;2.80;;;14.50;91.00;;;;;;2118054;67;20359;-81
2022/04/22 10:13:30;;;;;;;7.43;3.00;;;14.50;90.20;;;;;;2121766;67;20603;-79
2022/04/22 10:16:14;;;;;;;10.48;2.72;;;14.70;89.00;;;;;;2112159;67;20437;-79
2022/04/22 10:19:01;;;;;;;5.32;2.70;;;14.70;88.30;;;;;;2113423;67;20637;-80
2022/04/22 10:21:47;;;;;;;4.85;2.65;;;14.80;88.10;;;;;;2125978;67;20172;-81
2022/04/22 10:24:31;;;;;;;3.65;2.80;;;14.80;87.80;;;;;;2131033;67;20527;-82
2022/04/22 10:27:14;;;;;;;5.65;2.85;;;15.00;87.50;;;;;;2125364;67;20327;-80
2022/04/22 10:30:00;;;;;;;11.63;3.30;;;15.10;87.50;;;;;;2122728;67;20210;-77
2022/04/22 10:32:52;;;;;;;5.05;2.92;;;15.20;86.10;;;;;;2104979;68;20402;-76
2022/04/22 10:35:41;;;;;;;4.13;2.65;;;15.40;85.30;;;;;;2111565;67;20391;-79
2022/04/22 10:38:33;;;;;;;4.05;2.67;;;15.60;83.90;;;;;;2113692;67;20354;-72
2022/04/22 10:41:14;;;;;;;5.35;2.80;;;15.60;82.20;;;;;;2114720;67;20176;-75
2022/04/22 10:47:15;;;;;;;8.35;3.10;;;15.90;81.10;;;;;;2149311;66;20208;-73
2022/04/22 10:50:18;;;;;;;5.55;2.80;;;16.50;80.50;;;;;;2145812;66;20203;-73
2022/04/22 10:53:09;;;;;;;4.53;3.38;;;17.30;79.70;;;;;;2146139;66;20281;-72
2022/04/22 10:56:26;;;;;;;6.72;3.17;;;18.00;76.50;;;;;;2141145;67;20203;-72
2022/04/22 10:59:16;;;;;;;3.65;3.05;;;18.60;75.40;;;;;;2154289;66;20274;-73
2022/04/22 11:01:58;;;;;;;7.05;2.88;;;19.20;73.20;;;;;;2134609;66;20205;-73
2022/04/22 11:04:40;;;;;;;11.43;3.00;;;19.80;71.10;;;;;;2134225;67;20191;-82
2022/04/22 11:07:59;;;;;;;5.93;3.05;;;20.20;68.20;;;;;;2141036;67;20211;-80
2022/04/22 11:10:49;;;;;;;6.68;2.88;;;20.70;65.40;;;;;;2148798;66;20355;-80
2022/04/22 11:13:52;;;;;;;4.78;3.03;;;21.20;63.90;;;;;;2146520;66;20328;-80
2022/04/22 11:16:36;;;;;;;4.00;3.00;;;21.90;61.60;;;;;;2149868;66;20267;-80
2022/04/22 11:19:20;;;;;;;5.03;3.03;;;22.00;59.40;;;;;;2149781;66;20223;-78
2022/04/22 11:22:02;;;;;;;3.08;2.70;;;22.50;58.10;;;;;;2161489;66;20257;-78
2022/04/22 11:24:51;;;;;;;5.22;3.00;;;22.90;56.60;;;;;;2161536;66;20358;-79
2022/04/22 11:27:37;;;;;;;4.93;2.95;;;23.30;54.30;;;;;;2163125;66;20252;-77
2022/04/22 11:30:22;;;;;;;4.50;3.08;;;23.60;53.50;;;;;;2162108;66;20225;-81
2022/04/22 11:33:27;;;;;;;3.35;3.05;;;24.30;52.50;;;;;;2145254;66;20295;-78
2022/04/22 11:36:10;;;;;;;6.32;2.90;;;25.10;51.70;;;;;;2137316;67;20265;-75
2022/04/22 11:38:54;;;;;;;4.88;2.95;;;25.40;49.70;;;;;;2134231;67;20207;-78
2022/04/22 11:41:51;;;;;;;3.50;3.20;;;25.70;48.40;;;;;;2131788;67;20898;-78
2022/04/22 11:44:34;;;;;;;4.13;3.40;;;26.20;47.20;;;;;;2124434;67;20351;-77
2022/04/22 11:47:17;;;;;;;5.47;3.05;;;26.70;47.30;;;;;;2117713;67;20177;-79
2022/04/22 11:49:59;;;;;;;3.28;2.85;;;27.20;46.50;;;;;;2119390;67;20254;-79
2022/04/22 11:52:41;;;;;;;5.63;3.30;;;27.90;45.40;;;;;;2122098;67;20396;-79
2022/04/22 11:55:24;;;;;;;4.95;2.95;;;28.40;44.20;;;;;;2132036;67;20410;-77
2022/04/22 11:58:06;;;;;;;4.60;2.70;;;28.80;43.40;;;;;;2122864;67;20184;-80
2022/04/22 12:06:55;;;;;;;3.53;3.13;;;30.00;41.10;;;;;;2135356;67;20373;-78
2022/04/22 12:09:39;;;;;;;5.47;2.83;;;30.40;40.40;;;;;;2135396;67;20572;-78
2022/04/22 12:12:24;;;;;;;5.40;3.17;;;30.40;39.60;;;;;;2139064;66;20371;-77
2022/04/22 12:15:06;;;;;;;;;;;30.50;39.30;;;;;;2139353;66;20421;-77
2022/04/22 12:17:50;;;;;;;5.97;3.58;;;30.50;39.00;;;;;;2121496;67;20053;-79
2022/04/22 12:20:36;;;;;;;4.72;3.50;;;30.70;39.50;;;;;;2119760;67;20353;-79
2022/04/22 12:23:18;;;;;;;4.25;3.50;;;31.10;38.50;;;;;;2130040;67;20337;-77
2022/04/22 12:26:00;;;;;;;3.97;3.20;;;31.30;37.70;;;;;;2124725;67;20688;-78
2022/04/22 12:29:00;;;;;;;3.30;2.83;;;31.60;37.40;;;;;;2119704;67;20208;-77
2022/04/22 12:31:49;;;;;;;3.80;3.00;;;31.80;37.90;;;;;;2126018;67;20200;-77
2022/04/22 12:34:38;;;;;;;3.78;3.40;;;32.20;37.40;;;;;;2101189;67;20199;-77
2022/04/22 12:37:20;;;;;;;3.85;3.17;;;32.70;37.00;;;;;;2104009;67;20290;-79
2022/04/22 12:40:12;;;;;;;8.10;3.47;;;33.10;36.10;;;;;;2113463;67;20257;-77
2022/04/22 12:42:55;;;;;;;4.15;3.75;;;33.40;35.90;;;;;;2106763;67;20718;-77
2022/04/22 12:54:55;;;;;;;5.05;3.67;;;34.60;34.70;;;;;;2114821;67;20243;-77
2022/04/22 12:57:39;;;;;;;5.07;3.78;;;35.10;34.20;;;;;;2105922;67;20755;-77
2022/04/22 13:00:23;;;;;;;6.10;4.32;;;35.40;33.90;;;;;;2109454;67;20795;-77
2022/04/22 13:03:04;;;;;;;5.63;3.72;;;35.80;33.40;;;;;;2113950;67;20223;-78
2022/04/22 13:05:47;;;;;;;5.80;4.00;;;36.20;33.40;;;;;;2104634;68;20723;-78
2022/04/22 13:08:32;;;;;;;4.68;4.03;;;36.30;32.80;;;;;;2111852;67;20276;-79
2022/04/22 13:11:16;;;;;;;5.00;4.38;;;36.20;33.10;;;;;;2111501;67;20198;-76
2022/04/22 13:13:57;;;;;;;5.93;3.92;;;36.30;32.60;;;;;;2121846;67;20670;-76
2022/04/22 13:16:39;;;;;;;5.78;3.80;;;36.40;32.90;;;;;;2125564;67;20192;-77
2022/04/22 13:19:22;;;;;;;7.32;4.30;;;36.20;32.70;;;;;;2131261;67;20251;-79
2022/04/22 13:22:08;;;;;;;5.07;3.67;;;36.40;32.60;;;;;;1915877;67;15093522;-74
2022/04/22 13:24:54;;;;;;;3.85;3.30;;;36.40;32.60;;;;;;2127759;67;20270;-79
2022/04/22 13:27:37;;;;;;;4.95;3.85;;;36.50;32.30;;;;;;2144574;66;20174;-81
2022/04/22 13:30:19;;;;;;;4.15;3.75;;;36.40;32.30;;;;;;2140062;67;20219;-81
2022/04/22 13:33:02;;;;;;;5.22;3.85;;;35.80;32.20;;;;;;2139359;67;20234;-82
2022/04/22 13:35:45;;;;;;;6.07;3.90;;;35.70;32.50;;;;;;2147296;66;20832;-81
2022/04/22 13:38:27;;;;;;;5.18;4.20;;;36.10;32.60;;;;;;2174435;65;20233;-82
2022/04/22 13:41:10;;;;;;;6.30;3.95;;;36.70;32.10;;;;;;2183215;65;20215;-83
2022/04/22 13:43:52;;;;;;;6.07;4.00;;;36.80;32.10;;;;;;2169292;66;20227;-81
2022/04/22 13:52:30;;;;;;;6.05;3.75;;;38.00;31.90;;;;;;2149664;66;20228;-80
2022/04/22 13:55:09;;;;;;;8.68;4.30;;;38.00;32.10;;;;;;2140361;66;20187;-83
2022/04/22 13:57:40;;;;;;;4.57;3.55;;;38.40;31.60;;;;;;2139731;66;20279;-82
2022/04/22 14:00:34;;;;;;;4.03;3.67;;;38.80;31.00;;;;;;2162737;66;20803;-81
2022/04/22 14:03:11;;;;;;;6.15;4.30;;;38.50;30.40;;;;;;2161415;66;20243;-82
2022/04/22 14:05:50;;;;;;;6.45;4.15;;;38.00;30.60;;;;;;2170033;65;20197;-83
2022/04/22 14:08:28;;;;;;;5.40;4.00;;;37.80;30.90;;;;;;2176370;65;20376;-81
2022/04/22 14:11:08;;;;;;;5.05;3.92;;;37.80;30.90;;;;;;2176124;65;20183;-82
2022/04/22 14:14:03;;;;;;;5.70;4.93;;;37.80;30.80;;;;;;2170661;65;20187;-81
2022/04/22 14:16:57;;;;;;;6.30;4.25;;;37.70;30.70;;;;;;2164398;65;20324;-85
2022/04/22 14:19:35;;;;;;;5.35;4.10;;;37.70;30.80;;;;;;2177728;65;20730;-81
2022/04/22 14:22:11;;;;;;;6.18;4.20;;;37.50;30.70;;;;;;2170429;65;20237;-80
2022/04/22 14:24:48;;;;;;;5.47;4.45;;;37.60;30.60;;;;;;2168468;65;20195;-79
2022/04/22 14:27:27;;;;;;;4.85;4.40;;;37.90;30.40;;;;;;2168888;65;20834;-81
2022/04/22 14:30:06;;;;;;;4.68;4.18;;;37.90;30.30;;;;;;2168664;65;20219;-81
2022/04/22 14:32:43;;;;;;;8.25;5.13;;;37.00;30.50;;;;;;2188585;65;20848;-80
2022/04/22 14:35:19;;;;;;;5.20;4.68;;;36.70;31.60;;;;;;2207263;64;20256;-80
2022/04/22 14:38:09;;;;;;;4.80;3.88;;;36.70;30.90;;;;;;2210917;64;20270;-81
2022/04/22 14:41:05;;;;;;;6.63;4.32;;;35.90;31.10;;;;;;2211519;64;20277;-80
2022/04/22 14:43:57;;;;;;;;;;;34.90;31.30;;;;;;2207071;64;20165;-81
2022/04/22 14:46:28;;;;;;;6.20;4.53;;;34.20;32.50;;;;;;2199090;65;20104;-80
2022/04/22 14:48:59;;;;;;;6.82;4.82;;;34.70;32.70;;;;;;2198267;65;20291;-80
2022/04/22 14:51:41;;;;;;;5.55;4.15;;;35.30;32.00;;;;;;2201566;65;20801;-80
2022/04/22 14:54:25;;;;;;;7.18;4.38;;;34.70;31.80;;;;;;2184028;65;20320;-79
2022/04/22 14:57:13;;;;;;;6.88;4.05;;;33.80;32.70;;;;;;2186719;65;20407;-79
2022/04/22 14:59:55;;;;;;;7.55;4.57;;;33.90;32.80;;;;;;2175928;65;20184;-79
2022/04/22 15:02:37;;;;;;;4.40;3.78;;;34.30;32.30;;;;;;2173213;65;20335;-79
2022/04/22 15:05:19;;;;;;;6.25;4.35;;;34.70;32.20;;;;;;2183363;65;20810;-77
2022/04/22 15:08:02;;;;;;;8.20;4.45;;;35.30;31.90;;;;;;2161030;66;20195;-76
2022/04/22 15:10:44;;;;;;;4.93;3.75;;;35.60;31.90;;;;;;2164538;66;20831;-76
2022/04/22 15:13:26;;;;;;;5.65;4.07;;;35.90;31.60;;;;;;2156558;66;20330;-76
2022/04/22 15:16:09;;;;;;;5.00;4.50;;;35.70;31.10;;;;;;2168284;66;20304;-76
2022/04/22 15:24:56;;;;;;;4.97;4.00;;;34.10;32.00;;;;;;2147561;66;20689;-76
2022/04/22 15:27:41;;;;;;;4.93;3.85;;;33.20;32.30;;;;;;2145211;66;20175;-76
2022/04/22 15:31:12;;;;;;;5.82;4.07;;;32.70;32.30;;;;;;2156479;66;20687;-76
2022/04/22 15:33:54;;;;;;;6.88;4.10;;;31.20;33.30;;;;;;2143848;66;20381;-77
2022/04/22 15:36:37;;;;;;;4.88;3.92;;;29.80;35.10;;;;;;2140673;66;20260;-75
2022/04/22 15:39:20;;;;;;;6.40;4.05;;;29.80;35.60;;;;;;2158045;66;20368;-76
2022/04/22 15:42:03;;;;;;;5.95;4.20;;;30.70;35.20;;;;;;2165466;65;20401;-76
2022/04/22 15:44:45;;;;;;;4.85;4.30;;;31.20;35.00;;;;;;2163013;66;20357;-76
2022/04/22 15:47:27;;;;;;;6.90;3.75;;;31.80;34.30;;;;;;2171433;65;20266;-76